Hauptseite
METAR-TAF:

METAR-TAF

Flughäfen :

Pembrey, Wales

Flughafen Pembrey

Breite: 51-43N, Länge: 004-22W, Höhe: 3 m

Beobachtung

Neuester Wetterbericht von vor 51 Minuten, um 10:50 UTC
Wind 22 kt aus Süd/Südwest
Temperatur 10°C
Luftfeuchtigkeit 93%
Luftdruck 1011 hPa
Sichtweite: 7000 m
Leicht bewölkt in der Höhe von 700 ft
Durchbrochene Bewölkung in der Höhe von 2700 ft
feuchter Dunst

METAR: EGOP 231050Z 20022KT 7000 BR FEW007 BKN027 10/09 Q1011 WHT

Zeit: 11:41 (11:41 UTC)


TAF: fehlend

Wetterbeobachtungen und Prognosen von mehr als 4000 Flughäfen (METAR und TAF Bericht).

Die verfügbaren Stationen werden durch gelbe und rote Markierungen auf der Karte dargestellt.

Führen Sie die Maus auf sie, um den Namen der Station zu sehen.

Darauf klicken, um die Beobachtung von Wetterbeobachtungen und Prognosen zu sehen.

Um die Karte zu ändern : klicken Sie auf den grünen Tasten mit einem schwarzen Kreuz Zum Vergrößern, auf den grünen Button mit einem Gedankenstrich zu verkleinern, oder auf die grünen Pfeile für benachbarte Karten.


METAR-TAF: